sensor_id;sensor_type;location;lat;lon;timestamp;pressure;altitude;pressure_sealevel;temperature
68342;BMP280;55668;52.310;21.066;2022-09-29T00:19:08;99220.0;;;9.1
68342;BMP280;55668;52.310;21.066;2022-09-29T01:05:41;99240.0;;;9.2
68342;BMP280;55668;52.310;21.066;2022-09-29T01:20:42;99230.0;;;9.0
68342;BMP280;55668;52.310;21.066;2022-09-29T01:36:09;99240.0;;;8.9
68342;BMP280;55668;52.310;21.066;2022-09-29T01:51:43;99260.0;;;8.7
68342;BMP280;55668;52.310;21.066;2022-09-29T02:06:34;99270.0;;;8.6
68342;BMP280;55668;52.310;21.066;2022-09-29T02:37:26;99290.0;;;8.4
68342;BMP280;55668;52.310;21.066;2022-09-29T03:08:33;99310.0;;;8.5
68342;BMP280;55668;52.310;21.066;2022-09-29T03:23:45;99330.0;;;8.6
68342;BMP280;55668;52.310;21.066;2022-09-29T03:38:33;99340.0;;;8.4
68342;BMP280;55668;52.310;21.066;2022-09-29T04:11:34;99340.0;;;8.3
68342;BMP280;55668;52.310;21.066;2022-09-29T04:25:02;99340.0;;;8.2
68342;BMP280;55668;52.310;21.066;2022-09-29T04:56:03;99370.0;;;8.3
68342;BMP280;55668;52.310;21.066;2022-09-29T05:10:48;99370.0;;;8.4
68342;BMP280;55668;52.310;21.066;2022-09-29T05:26:39;99390.0;;;8.5
68342;BMP280;55668;52.310;21.066;2022-09-29T05:41:41;99410.0;;;8.7
68342;BMP280;55668;52.310;21.066;2022-09-29T05:57:50;99440.0;;;8.8
68342;BMP280;55668;52.310;21.066;2022-09-29T06:12:21;99450.0;;;8.9
68342;BMP280;55668;52.310;21.066;2022-09-29T06:27:42;99460.0;;;9.0
68342;BMP280;55668;52.310;21.066;2022-09-29T06:46:26;99470.0;;;9.1
68342;BMP280;55668;52.310;21.066;2022-09-29T06:58:45;99480.0;;;9.4
68342;BMP280;55668;52.310;21.066;2022-09-29T07:16:39;99500.0;;;9.5
68342;BMP280;55668;52.310;21.066;2022-09-29T07:29:09;99520.0;;;9.4
68342;BMP280;55668;52.310;21.066;2022-09-29T07:45:18;99540.0;;;9.5
68342;BMP280;55668;52.310;21.066;2022-09-29T08:03:08;99550.0;;;9.9
68342;BMP280;55668;52.310;21.066;2022-09-29T08:16:04;99560.0;;;11.3
68342;BMP280;55668;52.310;21.066;2022-09-29T08:32:40;99580.0;;;10.8
68342;BMP280;55668;52.310;21.066;2022-09-29T08:47:10;99590.0;;;11.1
68342;BMP280;55668;52.310;21.066;2022-09-29T09:04:45;99590.0;;;11.3
68342;BMP280;55668;52.310;21.066;2022-09-29T09:17:01;99610.0;;;11.4
68342;BMP280;55668;52.310;21.066;2022-09-29T09:32:44;99620.0;;;11.6
68342;BMP280;55668;52.310;21.066;2022-09-29T10:03:31;99660.0;;;11.5
68342;BMP280;55668;52.310;21.066;2022-09-29T10:18:54;99680.0;;;11.4
68342;BMP280;55668;52.310;21.066;2022-09-29T10:49:26;99700.0;;;11.3
68342;BMP280;55668;52.310;21.066;2022-09-29T11:19:26;99720.0;;;11.5
68342;BMP280;55668;52.310;21.066;2022-09-29T11:35:02;99740.0;;;11.8
68342;BMP280;55668;52.310;21.066;2022-09-29T11:50:10;99730.0;;;12.1
68342;BMP280;55668;52.310;21.066;2022-09-29T12:06:38;99720.0;;;12.4
68342;BMP280;55668;52.310;21.066;2022-09-29T12:23:42;99730.0;;;12.7
68342;BMP280;55668;52.310;21.066;2022-09-29T12:36:15;99740.0;;;12.8
68342;BMP280;55668;52.310;21.066;2022-09-29T13:08:05;99750.0;;;14.4
68342;BMP280;55668;52.310;21.066;2022-09-29T13:37:46;99770.0;;;13.3
68342;BMP280;55668;52.310;21.066;2022-09-29T14:08:47;99800.0;;;12.8
68342;BMP280;55668;52.310;21.066;2022-09-29T14:41:38;99820.0;;;12.5
68342;BMP280;55668;52.310;21.066;2022-09-29T14:54:43;99830.0;;;12.0
68342;BMP280;55668;52.310;21.066;2022-09-29T15:10:24;99840.0;;;11.9
68342;BMP280;55668;52.310;21.066;2022-09-29T15:26:55;99850.0;;;11.6
68342;BMP280;55668;52.310;21.066;2022-09-29T15:44:09;99870.0;;;11.4
68342;BMP280;55668;52.310;21.066;2022-09-29T15:56:17;99880.0;;;11.1
68342;BMP280;55668;52.310;21.066;2022-09-29T16:15:05;99890.0;;;10.7
68342;BMP280;55668;52.310;21.066;2022-09-29T16:26:55;99890.0;;;10.2
68342;BMP280;55668;52.310;21.066;2022-09-29T16:42:29;99920.0;;;9.9
68342;BMP280;55668;52.310;21.066;2022-09-29T16:57:23;99930.0;;;9.5
68342;BMP280;55668;52.310;21.066;2022-09-29T17:13:07;99950.0;;;9.2
68342;BMP280;55668;52.310;21.066;2022-09-29T17:29:51;99970.0;;;8.8
68342;BMP280;55668;52.310;21.066;2022-09-29T17:43:33;99960.0;;;8.6
68342;BMP280;55668;52.310;21.066;2022-09-29T18:00:52;99980.0;;;8.4
68342;BMP280;55668;52.310;21.066;2022-09-29T18:14:59;99990.0;;;8.1
68342;BMP280;55668;52.310;21.066;2022-09-29T18:29:43;99990.0;;;7.9
68342;BMP280;55668;52.310;21.066;2022-09-29T18:45:22;100010.0;;;7.8
68342;BMP280;55668;52.310;21.066;2022-09-29T19:01:27;100020.0;;;7.6
68342;BMP280;55668;52.310;21.066;2022-09-29T19:17:19;100050.0;;;7.5
68342;BMP280;55668;52.310;21.066;2022-09-29T19:30:53;100050.0;;;7.3
68342;BMP280;55668;52.310;21.066;2022-09-29T19:46:43;100060.0;;;7.1
68342;BMP280;55668;52.310;21.066;2022-09-29T20:02:55;100070.0;;;6.9
68342;BMP280;55668;52.310;21.066;2022-09-29T20:17:09;100080.0;;;6.8
68342;BMP280;55668;52.310;21.066;2022-09-29T20:36:11;100070.0;;;6.7
68342;BMP280;55668;52.310;21.066;2022-09-29T20:48:13;100100.0;;;6.5
68342;BMP280;55668;52.310;21.066;2022-09-29T21:05:15;100100.0;;;6.2
68342;BMP280;55668;52.310;21.066;2022-09-29T21:19:26;100100.0;;;6.0
68342;BMP280;55668;52.310;21.066;2022-09-29T21:33:53;100110.0;;;5.9
68342;BMP280;55668;52.310;21.066;2022-09-29T22:09:03;100160.0;;;5.8
68342;BMP280;55668;52.310;21.066;2022-09-29T22:20:57;100180.0;;;5.6
68342;BMP280;55668;52.310;21.066;2022-09-29T22:50:53;100220.0;;;5.7
68342;BMP280;55668;52.310;21.066;2022-09-29T23:06:16;100210.0;;;5.6
